La Grande Rivière Airport
CYGL : now visible

Airfield :











YOU CAN JOIN US ON...

 
LOGIN :

Register | Disclaimer

   EN    FR    IT 

 









Legend :    VFR   Marginal VFR   IFR   Intensive IFR   Very Intensive IFR
Visi :
Ceiling :
>= 8 km
>= 3000ft
5 to 8 km
1000 to 3000 ft
1500m to 5 km
500 to 1000 ft
800 to 1500m
200 to 500 ft
< 800m
< 200 ft
Symbols :   Thunderstorms  Fog  Heavy snow  Heavy precipitations  Wind > 20 kt






- Airport Elevation : 639 ft
- IATA code : YGL


CYGL - La Grande Rivière

CURRENT METAR :
  • 121600Z 26008KT 15SM BKN090 14/M03 A3013 RMK AC5 SLP215

EXPIRED METARs :
  • 121500Z 24005KT 200V300 15SM SCT090 BKN220 11/M04 A3014 RMK AC3CI2 SLP218
  • 121400Z 26005KT 230V300 15SM BKN090 09/M08 A3015 RMK AC6 SLP220

TAF TAF CYGL
Valid from the 12 at 12:00 until the 13 at 12:00 UTC


121138Z 1212/1312 26008KT P6SM SCT080 BKN220
FM121600 24008KT P6SM BKN080 OVC120
BECMG 1218/1220 28012G22KT
FM130200 32008KT P6SM SKC
FM130600 32008KT P6SM SCT008 BKN010 RMK NXT FCST BY 121800Z
CZUL FIR / North America



MET'MAP, your aeronautical weather chart ! - Copyright ORBIFLY December 2007 - Disclaimer

ORBIFLY MET'MAP TEAM :

Programming & Development : Alexandra Zaïnal
Concept & original design : Baudouin d'Aumeries
Assistance for programming : Marc-Olivier Méhu
Technical & hardware support : Manuel Goepfert

Contact : metmap@orbifly.com




SOURCES & CREDITS :

   NOAA       Earth
Advisory